sensor_id;sensor_type;location;lat;lon;timestamp;P1;P2;P0
38288;PMS5003;24092;53.370;-6.588;2023-05-10T00:02:23;4;2;
38288;PMS5003;24092;53.370;-6.588;2023-05-10T00:04:51;1;1;
38288;PMS5003;24092;53.370;-6.588;2023-05-10T00:07:18;3;3;
38288;PMS5003;24092;53.370;-6.588;2023-05-10T00:09:45;4;2;
38288;PMS5003;24092;53.370;-6.588;2023-05-10T00:12:12;7;5;
38288;PMS5003;24092;53.370;-6.588;2023-05-10T00:14:39;3;3;
38288;PMS5003;24092;53.370;-6.588;2023-05-10T00:17:06;2;2;
38288;PMS5003;24092;53.370;-6.588;2023-05-10T00:19:33;2;2;
38288;PMS5003;24092;53.370;-6.588;2023-05-10T00:22:00;4;4;
38288;PMS5003;24092;53.370;-6.588;2023-05-10T00:24:28;4;3;
38288;PMS5003;24092;53.370;-6.588;2023-05-10T00:26:55;2;2;
38288;PMS5003;24092;53.370;-6.588;2023-05-10T00:29:22;3;2;
38288;PMS5003;24092;53.370;-6.588;2023-05-10T00:31:49;6;5;
38288;PMS5003;24092;53.370;-6.588;2023-05-10T00:34:16;3;3;
38288;PMS5003;24092;53.370;-6.588;2023-05-10T00:36:43;5;5;
38288;PMS5003;24092;53.370;-6.588;2023-05-10T00:39:10;4;4;
38288;PMS5003;24092;53.370;-6.588;2023-05-10T00:41:37;3;3;
38288;PMS5003;24092;53.370;-6.588;2023-05-10T00:44:04;5;5;
38288;PMS5003;24092;53.370;-6.588;2023-05-10T00:46:31;2;1;
38288;PMS5003;24092;53.370;-6.588;2023-05-10T00:48:58;3;2;
38288;PMS5003;24092;53.370;-6.588;2023-05-10T00:51:25;1;1;
38288;PMS5003;24092;53.370;-6.588;2023-05-10T00:53:52;2;2;
38288;PMS5003;24092;53.370;-6.588;2023-05-10T00:56:20;1;1;
38288;PMS5003;24092;53.370;-6.588;2023-05-10T00:58:47;2;1;
38288;PMS5003;24092;53.370;-6.588;2023-05-10T01:01:14;3;2;
38288;PMS5003;24092;53.370;-6.588;2023-05-10T01:03:41;4;4;
38288;PMS5003;24092;53.370;-6.588;2023-05-10T01:06:09;4;3;
38288;PMS5003;24092;53.370;-6.588;2023-05-10T01:08:36;6;4;
38288;PMS5003;24092;53.370;-6.588;2023-05-10T01:11:04;9;6;
38288;PMS5003;24092;53.370;-6.588;2023-05-10T01:13:32;5;5;
38288;PMS5003;24092;53.370;-6.588;2023-05-10T01:16:02;4;2;
38288;PMS5003;24092;53.370;-6.588;2023-05-10T01:18:30;3;2;
38288;PMS5003;24092;53.370;-6.588;2023-05-10T01:21:01;3;3;
38288;PMS5003;24092;53.370;-6.588;2023-05-10T01:23:48;4;3;
38288;PMS5003;24092;53.370;-6.588;2023-05-10T01:27:54;2;2;
38288;PMS5003;24092;53.370;-6.588;2023-05-10T01:30:36;1;1;
38288;PMS5003;24092;53.370;-6.588;2023-05-10T01:33:23;1;1;
38288;PMS5003;24092;53.370;-6.588;2023-05-10T01:35:55;2;2;
38288;PMS5003;24092;53.370;-6.588;2023-05-10T01:38:31;2;2;
38288;PMS5003;24092;53.370;-6.588;2023-05-10T01:41:06;2;2;
38288;PMS5003;24092;53.370;-6.588;2023-05-10T01:43:42;4;3;
38288;PMS5003;24092;53.370;-6.588;2023-05-10T01:46:16;1;1;
38288;PMS5003;24092;53.370;-6.588;2023-05-10T01:48:52;3;3;
38288;PMS5003;24092;53.370;-6.588;2023-05-10T01:51:24;2;2;
38288;PMS5003;24092;53.370;-6.588;2023-05-10T01:53:58;2;2;
38288;PMS5003;24092;53.370;-6.588;2023-05-10T01:56:29;1;1;
38288;PMS5003;24092;53.370;-6.588;2023-05-10T01:58:59;2;0;
38288;PMS5003;24092;53.370;-6.588;2023-05-10T02:01:30;0;0;
38288;PMS5003;24092;53.370;-6.588;2023-05-10T02:03:59;1;1;
38288;PMS5003;24092;53.370;-6.588;2023-05-10T02:06:28;3;2;
38288;PMS5003;24092;53.370;-6.588;2023-05-10T02:08:57;1;1;
38288;PMS5003;24092;53.370;-6.588;2023-05-10T02:11:24;2;2;
38288;PMS5003;24092;53.370;-6.588;2023-05-10T02:13:53;1;1;
38288;PMS5003;24092;53.370;-6.588;2023-05-10T02:16:23;1;1;
38288;PMS5003;24092;53.370;-6.588;2023-05-10T02:18:52;2;2;
38288;PMS5003;24092;53.370;-6.588;2023-05-10T02:21:21;2;2;
38288;PMS5003;24092;53.370;-6.588;2023-05-10T02:23:50;3;2;
38288;PMS5003;24092;53.370;-6.588;2023-05-10T02:26:18;1;1;
38288;PMS5003;24092;53.370;-6.588;2023-05-10T02:28:48;0;0;
38288;PMS5003;24092;53.370;-6.588;2023-05-10T02:31:17;1;0;
38288;PMS5003;24092;53.370;-6.588;2023-05-10T02:33:45;1;1;
38288;PMS5003;24092;53.370;-6.588;2023-05-10T02:36:14;2;2;
38288;PMS5003;24092;53.370;-6.588;2023-05-10T02:38:43;1;1;
38288;PMS5003;24092;53.370;-6.588;2023-05-10T02:41:12;2;2;
38288;PMS5003;24092;53.370;-6.588;2023-05-10T02:43:40;0;0;
38288;PMS5003;24092;53.370;-6.588;2023-05-10T02:46:08;3;1;
38288;PMS5003;24092;53.370;-6.588;2023-05-10T02:48:35;1;1;
38288;PMS5003;24092;53.370;-6.588;2023-05-10T02:51:03;1;1;
38288;PMS5003;24092;53.370;-6.588;2023-05-10T02:53:34;2;1;
38288;PMS5003;24092;53.370;-6.588;2023-05-10T02:56:04;2;2;
38288;PMS5003;24092;53.370;-6.588;2023-05-10T02:58:38;1;1;
38288;PMS5003;24092;53.370;-6.588;2023-05-10T03:01:05;3;2;
38288;PMS5003;24092;53.370;-6.588;2023-05-10T03:03:32;4;2;
38288;PMS5003;24092;53.370;-6.588;2023-05-10T03:05:59;1;1;
38288;PMS5003;24092;53.370;-6.588;2023-05-10T03:08:26;2;1;
38288;PMS5003;24092;53.370;-6.588;2023-05-10T03:10:55;2;2;
38288;PMS5003;24092;53.370;-6.588;2023-05-10T03:13:36;0;0;
38288;PMS5003;24092;53.370;-6.588;2023-05-10T03:16:12;1;1;
38288;PMS5003;24092;53.370;-6.588;2023-05-10T03:18:44;1;0;
38288;PMS5003;24092;53.370;-6.588;2023-05-10T03:21:17;4;1;
38288;PMS5003;24092;53.370;-6.588;2023-05-10T03:23:48;1;0;
38288;PMS5003;24092;53.370;-6.588;2023-05-10T03:26:21;1;1;
38288;PMS5003;24092;53.370;-6.588;2023-05-10T03:28:51;3;2;
38288;PMS5003;24092;53.370;-6.588;2023-05-10T03:31:20;0;0;
38288;PMS5003;24092;53.370;-6.588;2023-05-10T03:33:48;2;1;
38288;PMS5003;24092;53.370;-6.588;2023-05-10T03:36:15;1;1;
38288;PMS5003;24092;53.370;-6.588;2023-05-10T03:38:42;3;1;
38288;PMS5003;24092;53.370;-6.588;2023-05-10T03:41:09;2;2;
38288;PMS5003;24092;53.370;-6.588;2023-05-10T03:43:36;1;1;
38288;PMS5003;24092;53.370;-6.588;2023-05-10T03:46:03;2;1;
38288;PMS5003;24092;53.370;-6.588;2023-05-10T03:48:31;2;2;
38288;PMS5003;24092;53.370;-6.588;2023-05-10T03:50:59;1;1;
38288;PMS5003;24092;53.370;-6.588;2023-05-10T03:53:27;2;2;
38288;PMS5003;24092;53.370;-6.588;2023-05-10T03:55:53;2;1;
38288;PMS5003;24092;53.370;-6.588;2023-05-10T03:58:20;2;2;
38288;PMS5003;24092;53.370;-6.588;2023-05-10T04:00:47;0;0;
38288;PMS5003;24092;53.370;-6.588;2023-05-10T04:03:14;2;1;
38288;PMS5003;24092;53.370;-6.588;2023-05-10T04:05:41;1;0;
38288;PMS5003;24092;53.370;-6.588;2023-05-10T04:08:08;0;0;
38288;PMS5003;24092;53.370;-6.588;2023-05-10T04:10:35;0;0;
38288;PMS5003;24092;53.370;-6.588;2023-05-10T04:13:07;4;3;
38288;PMS5003;24092;53.370;-6.588;2023-05-10T04:15:34;0;0;
38288;PMS5003;24092;53.370;-6.588;2023-05-10T04:18:01;0;0;
38288;PMS5003;24092;53.370;-6.588;2023-05-10T04:20:28;1;1;
38288;PMS5003;24092;53.370;-6.588;2023-05-10T04:22:55;1;1;
38288;PMS5003;24092;53.370;-6.588;2023-05-10T04:25:22;1;0;
38288;PMS5003;24092;53.370;-6.588;2023-05-10T04:27:49;0;0;
38288;PMS5003;24092;53.370;-6.588;2023-05-10T04:30:16;1;1;
38288;PMS5003;24092;53.370;-6.588;2023-05-10T04:32:44;2;1;
38288;PMS5003;24092;53.370;-6.588;2023-05-10T04:35:11;0;0;
38288;PMS5003;24092;53.370;-6.588;2023-05-10T04:37:37;1;0;
38288;PMS5003;24092;53.370;-6.588;2023-05-10T04:40:05;1;1;
38288;PMS5003;24092;53.370;-6.588;2023-05-10T04:42:33;1;1;
38288;PMS5003;24092;53.370;-6.588;2023-05-10T04:45:01;1;1;
38288;PMS5003;24092;53.370;-6.588;2023-05-10T04:47:29;0;0;
38288;PMS5003;24092;53.370;-6.588;2023-05-10T04:49:56;1;1;
38288;PMS5003;24092;53.370;-6.588;2023-05-10T04:52:23;2;1;
38288;PMS5003;24092;53.370;-6.588;2023-05-10T04:54:50;2;1;
38288;PMS5003;24092;53.370;-6.588;2023-05-10T04:57:16;1;0;
38288;PMS5003;24092;53.370;-6.588;2023-05-10T04:59:43;0;0;
38288;PMS5003;24092;53.370;-6.588;2023-05-10T05:02:10;0;0;
38288;PMS5003;24092;53.370;-6.588;2023-05-10T05:04:37;2;1;
38288;PMS5003;24092;53.370;-6.588;2023-05-10T05:07:04;1;0;
38288;PMS5003;24092;53.370;-6.588;2023-05-10T05:09:31;2;1;
38288;PMS5003;24092;53.370;-6.588;2023-05-10T05:11:58;1;1;
38288;PMS5003;24092;53.370;-6.588;2023-05-10T05:14:25;1;1;
38288;PMS5003;24092;53.370;-6.588;2023-05-10T05:16:52;1;1;
38288;PMS5003;24092;53.370;-6.588;2023-05-10T05:19:19;1;1;
38288;PMS5003;24092;53.370;-6.588;2023-05-10T05:21:46;0;0;
38288;PMS5003;24092;53.370;-6.588;2023-05-10T05:24:13;0;0;
38288;PMS5003;24092;53.370;-6.588;2023-05-10T05:26:40;1;1;
38288;PMS5003;24092;53.370;-6.588;2023-05-10T05:29:07;2;1;
38288;PMS5003;24092;53.370;-6.588;2023-05-10T05:31:34;0;0;
38288;PMS5003;24092;53.370;-6.588;2023-05-10T05:34:01;0;0;
38288;PMS5003;24092;53.370;-6.588;2023-05-10T05:36:28;1;1;
38288;PMS5003;24092;53.370;-6.588;2023-05-10T05:38:55;2;2;
38288;PMS5003;24092;53.370;-6.588;2023-05-10T05:41:22;1;1;
38288;PMS5003;24092;53.370;-6.588;2023-05-10T05:43:49;1;1;
38288;PMS5003;24092;53.370;-6.588;2023-05-10T05:46:16;0;0;
38288;PMS5003;24092;53.370;-6.588;2023-05-10T05:48:43;0;0;
38288;PMS5003;24092;53.370;-6.588;2023-05-10T05:51:10;0;0;
38288;PMS5003;24092;53.370;-6.588;2023-05-10T05:53:37;0;0;
38288;PMS5003;24092;53.370;-6.588;2023-05-10T05:56:04;1;1;
38288;PMS5003;24092;53.370;-6.588;2023-05-10T05:58:31;1;1;
38288;PMS5003;24092;53.370;-6.588;2023-05-10T06:00:58;3;1;
38288;PMS5003;24092;53.370;-6.588;2023-05-10T06:03:25;0;0;
38288;PMS5003;24092;53.370;-6.588;2023-05-10T06:05:52;1;0;
38288;PMS5003;24092;53.370;-6.588;2023-05-10T06:08:19;1;1;
38288;PMS5003;24092;53.370;-6.588;2023-05-10T06:10:46;0;0;
38288;PMS5003;24092;53.370;-6.588;2023-05-10T06:13:13;2;1;
38288;PMS5003;24092;53.370;-6.588;2023-05-10T06:15:40;1;0;
38288;PMS5003;24092;53.370;-6.588;2023-05-10T06:18:07;0;0;
38288;PMS5003;24092;53.370;-6.588;2023-05-10T06:20:34;0;0;
38288;PMS5003;24092;53.370;-6.588;2023-05-10T06:23:01;0;0;
38288;PMS5003;24092;53.370;-6.588;2023-05-10T06:25:29;0;0;
38288;PMS5003;24092;53.370;-6.588;2023-05-10T06:27:56;1;0;
38288;PMS5003;24092;53.370;-6.588;2023-05-10T06:30:23;0;0;
38288;PMS5003;24092;53.370;-6.588;2023-05-10T06:32:51;0;0;
38288;PMS5003;24092;53.370;-6.588;2023-05-10T06:35:18;0;0;
38288;PMS5003;24092;53.370;-6.588;2023-05-10T06:37:45;0;0;
38288;PMS5003;24092;53.370;-6.588;2023-05-10T06:40:11;0;0;
38288;PMS5003;24092;53.370;-6.588;2023-05-10T06:42:38;2;1;
38288;PMS5003;24092;53.370;-6.588;2023-05-10T06:45:06;0;0;
38288;PMS5003;24092;53.370;-6.588;2023-05-10T06:47:34;0;0;
38288;PMS5003;24092;53.370;-6.588;2023-05-10T06:50:01;0;0;
38288;PMS5003;24092;53.370;-6.588;2023-05-10T06:52:29;0;0;
38288;PMS5003;24092;53.370;-6.588;2023-05-10T06:54:56;0;0;
38288;PMS5003;24092;53.370;-6.588;2023-05-10T06:57:23;0;0;
38288;PMS5003;24092;53.370;-6.588;2023-05-10T06:59:49;0;0;
38288;PMS5003;24092;53.370;-6.588;2023-05-10T07:02:17;1;0;
38288;PMS5003;24092;53.370;-6.588;2023-05-10T07:04:44;0;0;
38288;PMS5003;24092;53.370;-6.588;2023-05-10T07:07:18;0;0;
38288;PMS5003;24092;53.370;-6.588;2023-05-10T07:09:46;1;1;
38288;PMS5003;24092;53.370;-6.588;2023-05-10T07:12:14;0;0;
38288;PMS5003;24092;53.370;-6.588;2023-05-10T07:14:40;0;0;
38288;PMS5003;24092;53.370;-6.588;2023-05-10T07:17:07;1;0;
38288;PMS5003;24092;53.370;-6.588;2023-05-10T07:19:34;0;0;
38288;PMS5003;24092;53.370;-6.588;2023-05-10T07:22:01;0;0;
38288;PMS5003;24092;53.370;-6.588;2023-05-10T07:24:29;0;0;
38288;PMS5003;24092;53.370;-6.588;2023-05-10T07:26:56;0;0;
38288;PMS5003;24092;53.370;-6.588;2023-05-10T07:29:23;0;0;
38288;PMS5003;24092;53.370;-6.588;2023-05-10T07:31:50;0;0;
38288;PMS5003;24092;53.370;-6.588;2023-05-10T07:34:17;0;0;
38288;PMS5003;24092;53.370;-6.588;2023-05-10T07:36:44;0;0;
38288;PMS5003;24092;53.370;-6.588;2023-05-10T07:39:11;1;1;
38288;PMS5003;24092;53.370;-6.588;2023-05-10T07:41:38;0;0;
38288;PMS5003;24092;53.370;-6.588;2023-05-10T07:44:05;0;0;
38288;PMS5003;24092;53.370;-6.588;2023-05-10T07:46:33;0;0;
38288;PMS5003;24092;53.370;-6.588;2023-05-10T07:50:56;0;0;
38288;PMS5003;24092;53.370;-6.588;2023-05-10T07:53:24;0;0;
38288;PMS5003;24092;53.370;-6.588;2023-05-10T07:55:52;0;0;
38288;PMS5003;24092;53.370;-6.588;2023-05-10T07:58:23;0;0;
38288;PMS5003;24092;53.370;-6.588;2023-05-10T08:00:50;0;0;
38288;PMS5003;24092;53.370;-6.588;2023-05-10T08:03:17;0;0;
38288;PMS5003;24092;53.370;-6.588;2023-05-10T08:05:44;0;0;
38288;PMS5003;24092;53.370;-6.588;2023-05-10T08:08:11;0;0;
38288;PMS5003;24092;53.370;-6.588;2023-05-10T08:10:38;0;0;
38288;PMS5003;24092;53.370;-6.588;2023-05-10T08:13:05;0;0;
38288;PMS5003;24092;53.370;-6.588;2023-05-10T08:15:31;0;0;
38288;PMS5003;24092;53.370;-6.588;2023-05-10T08:17:58;0;0;
38288;PMS5003;24092;53.370;-6.588;2023-05-10T08:20:25;2;1;
38288;PMS5003;24092;53.370;-6.588;2023-05-10T08:22:52;2;1;
38288;PMS5003;24092;53.370;-6.588;2023-05-10T08:25:19;1;1;
38288;PMS5003;24092;53.370;-6.588;2023-05-10T08:27:46;1;0;
38288;PMS5003;24092;53.370;-6.588;2023-05-10T08:30:13;0;0;
38288;PMS5003;24092;53.370;-6.588;2023-05-10T08:32:40;0;0;
38288;PMS5003;24092;53.370;-6.588;2023-05-10T08:35:07;0;0;
38288;PMS5003;24092;53.370;-6.588;2023-05-10T08:37:34;0;0;
38288;PMS5003;24092;53.370;-6.588;2023-05-10T08:40:01;0;0;
38288;PMS5003;24092;53.370;-6.588;2023-05-10T08:42:28;1;1;
38288;PMS5003;24092;53.370;-6.588;2023-05-10T08:45:00;1;0;
38288;PMS5003;24092;53.370;-6.588;2023-05-10T08:47:28;1;1;
38288;PMS5003;24092;53.370;-6.588;2023-05-10T08:49:56;0;0;
38288;PMS5003;24092;53.370;-6.588;2023-05-10T08:52:24;0;0;
38288;PMS5003;24092;53.370;-6.588;2023-05-10T08:54:54;0;0;
38288;PMS5003;24092;53.370;-6.588;2023-05-10T08:57:21;1;0;
38288;PMS5003;24092;53.370;-6.588;2023-05-10T08:59:48;0;0;
38288;PMS5003;24092;53.370;-6.588;2023-05-10T09:02:15;0;0;
38288;PMS5003;24092;53.370;-6.588;2023-05-10T09:04:44;0;0;
38288;PMS5003;24092;53.370;-6.588;2023-05-10T09:07:11;0;0;
38288;PMS5003;24092;53.370;-6.588;2023-05-10T09:09:39;0;0;
38288;PMS5003;24092;53.370;-6.588;2023-05-10T09:12:07;0;0;
38288;PMS5003;24092;53.370;-6.588;2023-05-10T09:14:36;0;0;
38288;PMS5003;24092;53.370;-6.588;2023-05-10T09:17:05;0;0;
38288;PMS5003;24092;53.370;-6.588;2023-05-10T09:19:32;0;0;
38288;PMS5003;24092;53.370;-6.588;2023-05-10T09:22:00;1;0;
38288;PMS5003;24092;53.370;-6.588;2023-05-10T09:24:28;1;1;
38288;PMS5003;24092;53.370;-6.588;2023-05-10T09:26:56;0;0;
38288;PMS5003;24092;53.370;-6.588;2023-05-10T09:29:23;0;0;
38288;PMS5003;24092;53.370;-6.588;2023-05-10T09:31:51;0;0;
38288;PMS5003;24092;53.370;-6.588;2023-05-10T09:34:19;0;0;
38288;PMS5003;24092;53.370;-6.588;2023-05-10T09:36:52;0;0;
38288;PMS5003;24092;53.370;-6.588;2023-05-10T09:39:21;0;0;
38288;PMS5003;24092;53.370;-6.588;2023-05-10T09:41:57;1;0;
38288;PMS5003;24092;53.370;-6.588;2023-05-10T09:44:25;1;1;
38288;PMS5003;24092;53.370;-6.588;2023-05-10T09:46:52;0;0;
38288;PMS5003;24092;53.370;-6.588;2023-05-10T09:49:20;0;0;
38288;PMS5003;24092;53.370;-6.588;2023-05-10T09:51:47;0;0;
38288;PMS5003;24092;53.370;-6.588;2023-05-10T09:54:26;0;0;
38288;PMS5003;24092;53.370;-6.588;2023-05-10T09:56:53;0;0;
38288;PMS5003;24092;53.370;-6.588;2023-05-10T09:59:20;1;1;
38288;PMS5003;24092;53.370;-6.588;2023-05-10T10:01:49;1;1;
38288;PMS5003;24092;53.370;-6.588;2023-05-10T10:04:17;0;0;
38288;PMS5003;24092;53.370;-6.588;2023-05-10T10:06:46;0;0;
38288;PMS5003;24092;53.370;-6.588;2023-05-10T10:09:12;1;1;
38288;PMS5003;24092;53.370;-6.588;2023-05-10T10:11:40;0;0;
38288;PMS5003;24092;53.370;-6.588;2023-05-10T10:14:07;0;0;
38288;PMS5003;24092;53.370;-6.588;2023-05-10T10:16:34;0;0;
38288;PMS5003;24092;53.370;-6.588;2023-05-10T10:19:02;0;0;
38288;PMS5003;24092;53.370;-6.588;2023-05-10T10:21:28;0;0;
38288;PMS5003;24092;53.370;-6.588;2023-05-10T10:23:55;0;0;
38288;PMS5003;24092;53.370;-6.588;2023-05-10T10:26:22;0;0;
38288;PMS5003;24092;53.370;-6.588;2023-05-10T10:28:51;0;0;
38288;PMS5003;24092;53.370;-6.588;2023-05-10T10:31:34;0;0;
38288;PMS5003;24092;53.370;-6.588;2023-05-10T10:34:05;0;0;
38288;PMS5003;24092;53.370;-6.588;2023-05-10T10:36:39;0;0;
38288;PMS5003;24092;53.370;-6.588;2023-05-10T10:39:08;0;0;
38288;PMS5003;24092;53.370;-6.588;2023-05-10T10:41:49;0;0;
38288;PMS5003;24092;53.370;-6.588;2023-05-10T10:44:33;0;0;
38288;PMS5003;24092;53.370;-6.588;2023-05-10T10:45:13;0;0;
38288;PMS5003;24092;53.370;-6.588;2023-05-10T10:45:38;0;0;
38288;PMS5003;24092;53.370;-6.588;2023-05-10T10:48:21;0;0;
38288;PMS5003;24092;53.370;-6.588;2023-05-10T10:50:57;0;0;
38288;PMS5003;24092;53.370;-6.588;2023-05-10T10:53:25;1;0;
38288;PMS5003;24092;53.370;-6.588;2023-05-10T10:55:55;1;1;
38288;PMS5003;24092;53.370;-6.588;2023-05-10T10:58:31;2;2;
38288;PMS5003;24092;53.370;-6.588;2023-05-10T11:01:09;0;0;
38288;PMS5003;24092;53.370;-6.588;2023-05-10T11:03:38;0;0;
38288;PMS5003;24092;53.370;-6.588;2023-05-10T11:06:11;0;0;
38288;PMS5003;24092;53.370;-6.588;2023-05-10T11:08:48;0;0;
38288;PMS5003;24092;53.370;-6.588;2023-05-10T11:11:26;0;0;
38288;PMS5003;24092;53.370;-6.588;2023-05-10T11:13:53;1;0;
38288;PMS5003;24092;53.370;-6.588;2023-05-10T11:16:40;1;1;
38288;PMS5003;24092;53.370;-6.588;2023-05-10T11:19:08;1;1;
38288;PMS5003;24092;53.370;-6.588;2023-05-10T11:21:44;2;1;
38288;PMS5003;24092;53.370;-6.588;2023-05-10T11:24:12;0;0;
38288;PMS5003;24092;53.370;-6.588;2023-05-10T11:26:41;1;0;
38288;PMS5003;24092;53.370;-6.588;2023-05-10T11:29:09;1;1;
38288;PMS5003;24092;53.370;-6.588;2023-05-10T11:31:41;1;1;
38288;PMS5003;24092;53.370;-6.588;2023-05-10T11:34:09;1;0;
38288;PMS5003;24092;53.370;-6.588;2023-05-10T11:36:35;0;0;
38288;PMS5003;24092;53.370;-6.588;2023-05-10T11:39:03;1;1;
38288;PMS5003;24092;53.370;-6.588;2023-05-10T11:41:32;1;1;
38288;PMS5003;24092;53.370;-6.588;2023-05-10T11:43:59;0;0;
38288;PMS5003;24092;53.370;-6.588;2023-05-10T11:46:27;0;0;
38288;PMS5003;24092;53.370;-6.588;2023-05-10T11:48:57;0;0;
38288;PMS5003;24092;53.370;-6.588;2023-05-10T11:51:26;0;0;
38288;PMS5003;24092;53.370;-6.588;2023-05-10T11:53:54;0;0;
38288;PMS5003;24092;53.370;-6.588;2023-05-10T11:56:22;0;0;
38288;PMS5003;24092;53.370;-6.588;2023-05-10T11:58:51;1;1;
38288;PMS5003;24092;53.370;-6.588;2023-05-10T12:01:20;0;0;
38288;PMS5003;24092;53.370;-6.588;2023-05-10T12:03:48;0;0;
38288;PMS5003;24092;53.370;-6.588;2023-05-10T12:06:16;0;0;
38288;PMS5003;24092;53.370;-6.588;2023-05-10T12:08:44;0;0;
38288;PMS5003;24092;53.370;-6.588;2023-05-10T12:11:12;1;0;
38288;PMS5003;24092;53.370;-6.588;2023-05-10T12:13:40;0;0;
38288;PMS5003;24092;53.370;-6.588;2023-05-10T12:16:13;1;0;
38288;PMS5003;24092;53.370;-6.588;2023-05-10T12:18:42;0;0;
38288;PMS5003;24092;53.370;-6.588;2023-05-10T12:21:09;0;0;
38288;PMS5003;24092;53.370;-6.588;2023-05-10T12:23:37;0;0;
38288;PMS5003;24092;53.370;-6.588;2023-05-10T12:26:11;0;0;
38288;PMS5003;24092;53.370;-6.588;2023-05-10T12:28:38;0;0;
38288;PMS5003;24092;53.370;-6.588;2023-05-10T12:31:06;0;0;
38288;PMS5003;24092;53.370;-6.588;2023-05-10T12:33:35;0;0;
38288;PMS5003;24092;53.370;-6.588;2023-05-10T12:36:03;0;0;
38288;PMS5003;24092;53.370;-6.588;2023-05-10T12:38:32;0;0;
38288;PMS5003;24092;53.370;-6.588;2023-05-10T12:41:01;0;0;
38288;PMS5003;24092;53.370;-6.588;2023-05-10T12:43:30;1;0;
38288;PMS5003;24092;53.370;-6.588;2023-05-10T12:45:57;0;0;
38288;PMS5003;24092;53.370;-6.588;2023-05-10T12:48:25;0;0;
38288;PMS5003;24092;53.370;-6.588;2023-05-10T12:50:52;0;0;
38288;PMS5003;24092;53.370;-6.588;2023-05-10T12:53:19;0;0;
38288;PMS5003;24092;53.370;-6.588;2023-05-10T12:55:45;0;0;
38288;PMS5003;24092;53.370;-6.588;2023-05-10T12:58:12;0;0;
38288;PMS5003;24092;53.370;-6.588;2023-05-10T13:00:40;1;0;
38288;PMS5003;24092;53.370;-6.588;2023-05-10T13:03:07;0;0;
38288;PMS5003;24092;53.370;-6.588;2023-05-10T13:05:34;2;1;
38288;PMS5003;24092;53.370;-6.588;2023-05-10T13:08:01;1;1;
38288;PMS5003;24092;53.370;-6.588;2023-05-10T13:10:29;1;1;
38288;PMS5003;24092;53.370;-6.588;2023-05-10T13:12:57;0;0;
38288;PMS5003;24092;53.370;-6.588;2023-05-10T13:15:25;1;1;
38288;PMS5003;24092;53.370;-6.588;2023-05-10T13:17:53;1;1;
38288;PMS5003;24092;53.370;-6.588;2023-05-10T13:20:20;1;1;
38288;PMS5003;24092;53.370;-6.588;2023-05-10T13:22:47;1;1;
38288;PMS5003;24092;53.370;-6.588;2023-05-10T13:25:14;0;0;
38288;PMS5003;24092;53.370;-6.588;2023-05-10T13:27:41;1;1;
38288;PMS5003;24092;53.370;-6.588;2023-05-10T13:30:08;1;1;
38288;PMS5003;24092;53.370;-6.588;2023-05-10T13:32:35;0;0;
38288;PMS5003;24092;53.370;-6.588;2023-05-10T13:35:02;1;1;
38288;PMS5003;24092;53.370;-6.588;2023-05-10T13:37:30;0;0;
38288;PMS5003;24092;53.370;-6.588;2023-05-10T13:39:57;0;0;
38288;PMS5003;24092;53.370;-6.588;2023-05-10T13:42:24;0;0;
38288;PMS5003;24092;53.370;-6.588;2023-05-10T13:44:51;0;0;
38288;PMS5003;24092;53.370;-6.588;2023-05-10T13:47:19;0;0;
38288;PMS5003;24092;53.370;-6.588;2023-05-10T13:49:45;0;0;
38288;PMS5003;24092;53.370;-6.588;2023-05-10T13:52:12;0;0;
38288;PMS5003;24092;53.370;-6.588;2023-05-10T13:54:39;0;0;
38288;PMS5003;24092;53.370;-6.588;2023-05-10T13:57:06;0;0;
38288;PMS5003;24092;53.370;-6.588;2023-05-10T13:59:33;0;0;
38288;PMS5003;24092;53.370;-6.588;2023-05-10T14:02:00;0;0;
38288;PMS5003;24092;53.370;-6.588;2023-05-10T14:04:26;0;0;
38288;PMS5003;24092;53.370;-6.588;2023-05-10T14:06:54;1;1;
38288;PMS5003;24092;53.370;-6.588;2023-05-10T14:09:21;0;0;
38288;PMS5003;24092;53.370;-6.588;2023-05-10T14:11:48;1;1;
38288;PMS5003;24092;53.370;-6.588;2023-05-10T14:14:14;1;0;
38288;PMS5003;24092;53.370;-6.588;2023-05-10T14:16:42;1;1;
38288;PMS5003;24092;53.370;-6.588;2023-05-10T14:19:10;0;0;
38288;PMS5003;24092;53.370;-6.588;2023-05-10T14:21:37;0;0;
38288;PMS5003;24092;53.370;-6.588;2023-05-10T14:24:04;0;0;
38288;PMS5003;24092;53.370;-6.588;2023-05-10T14:26:32;0;0;
38288;PMS5003;24092;53.370;-6.588;2023-05-10T14:28:59;0;0;
38288;PMS5003;24092;53.370;-6.588;2023-05-10T14:31:25;1;0;
38288;PMS5003;24092;53.370;-6.588;2023-05-10T14:33:52;0;0;
38288;PMS5003;24092;53.370;-6.588;2023-05-10T14:36:20;1;1;
38288;PMS5003;24092;53.370;-6.588;2023-05-10T14:38:47;0;0;
38288;PMS5003;24092;53.370;-6.588;2023-05-10T14:41:14;0;0;
38288;PMS5003;24092;53.370;-6.588;2023-05-10T14:43:42;1;1;
38288;PMS5003;24092;53.370;-6.588;2023-05-10T14:46:10;0;0;
38288;PMS5003;24092;53.370;-6.588;2023-05-10T14:48:37;2;1;
38288;PMS5003;24092;53.370;-6.588;2023-05-10T14:51:04;1;1;
38288;PMS5003;24092;53.370;-6.588;2023-05-10T14:53:32;0;0;
38288;PMS5003;24092;53.370;-6.588;2023-05-10T14:55:59;1;1;
38288;PMS5003;24092;53.370;-6.588;2023-05-10T14:58:25;0;0;
38288;PMS5003;24092;53.370;-6.588;2023-05-10T15:00:52;1;1;
38288;PMS5003;24092;53.370;-6.588;2023-05-10T15:03:19;1;1;
38288;PMS5003;24092;53.370;-6.588;2023-05-10T15:05:46;2;1;
38288;PMS5003;24092;53.370;-6.588;2023-05-10T15:08:14;1;1;
38288;PMS5003;24092;53.370;-6.588;2023-05-10T15:10:40;1;1;
38288;PMS5003;24092;53.370;-6.588;2023-05-10T15:13:07;0;0;
38288;PMS5003;24092;53.370;-6.588;2023-05-10T15:15:34;0;0;
38288;PMS5003;24092;53.370;-6.588;2023-05-10T15:18:01;0;0;
38288;PMS5003;24092;53.370;-6.588;2023-05-10T15:20:28;0;0;
38288;PMS5003;24092;53.370;-6.588;2023-05-10T15:22:55;1;1;
38288;PMS5003;24092;53.370;-6.588;2023-05-10T15:25:22;1;0;
38288;PMS5003;24092;53.370;-6.588;2023-05-10T15:27:48;0;0;
38288;PMS5003;24092;53.370;-6.588;2023-05-10T15:30:15;0;0;
38288;PMS5003;24092;53.370;-6.588;2023-05-10T15:32:42;0;0;
38288;PMS5003;24092;53.370;-6.588;2023-05-10T15:35:09;0;0;
38288;PMS5003;24092;53.370;-6.588;2023-05-10T15:37:37;0;0;
38288;PMS5003;24092;53.370;-6.588;2023-05-10T15:40:04;2;1;
38288;PMS5003;24092;53.370;-6.588;2023-05-10T15:42:33;0;0;
38288;PMS5003;24092;53.370;-6.588;2023-05-10T15:45:00;0;0;
38288;PMS5003;24092;53.370;-6.588;2023-05-10T15:47:27;1;0;
38288;PMS5003;24092;53.370;-6.588;2023-05-10T15:49:56;1;1;
38288;PMS5003;24092;53.370;-6.588;2023-05-10T15:52:23;0;0;
38288;PMS5003;24092;53.370;-6.588;2023-05-10T15:54:50;0;0;
38288;PMS5003;24092;53.370;-6.588;2023-05-10T15:57:17;1;0;
38288;PMS5003;24092;53.370;-6.588;2023-05-10T15:59:44;0;0;
38288;PMS5003;24092;53.370;-6.588;2023-05-10T16:02:11;0;0;
38288;PMS5003;24092;53.370;-6.588;2023-05-10T16:04:54;1;0;
38288;PMS5003;24092;53.370;-6.588;2023-05-10T16:07:21;0;0;
38288;PMS5003;24092;53.370;-6.588;2023-05-10T16:09:47;0;0;
38288;PMS5003;24092;53.370;-6.588;2023-05-10T16:12:14;0;0;
38288;PMS5003;24092;53.370;-6.588;2023-05-10T16:14:41;0;0;
38288;PMS5003;24092;53.370;-6.588;2023-05-10T16:17:13;0;0;
38288;PMS5003;24092;53.370;-6.588;2023-05-10T16:19:46;0;0;
38288;PMS5003;24092;53.370;-6.588;2023-05-10T16:22:13;0;0;
38288;PMS5003;24092;53.370;-6.588;2023-05-10T16:24:40;0;0;
38288;PMS5003;24092;53.370;-6.588;2023-05-10T16:27:07;1;1;
38288;PMS5003;24092;53.370;-6.588;2023-05-10T16:29:34;2;1;
38288;PMS5003;24092;53.370;-6.588;2023-05-10T16:32:06;1;1;
38288;PMS5003;24092;53.370;-6.588;2023-05-10T16:34:34;2;1;
38288;PMS5003;24092;53.370;-6.588;2023-05-10T16:37:01;1;1;
38288;PMS5003;24092;53.370;-6.588;2023-05-10T16:39:28;0;0;
38288;PMS5003;24092;53.370;-6.588;2023-05-10T16:41:55;1;1;